sensor_id;sensor_type;location;lat;lon;timestamp;pressure;altitude;pressure_sealevel;temperature
67758;BMP180;54562;47.620;18.786;2023-03-04T00:00:52;98553.40;;;1.30
67758;BMP180;54562;47.620;18.786;2023-03-04T00:04:00;98560.40;;;1.28
67758;BMP180;54562;47.620;18.786;2023-03-04T00:07:09;98563.20;;;1.30
67758;BMP180;54562;47.620;18.786;2023-03-04T00:10:18;98566.20;;;1.20
67758;BMP180;54562;47.620;18.786;2023-03-04T00:13:26;98566.40;;;1.20
67758;BMP180;54562;47.620;18.786;2023-03-04T00:16:34;98564.40;;;1.16
67758;BMP180;54562;47.620;18.786;2023-03-04T00:19:42;98566.00;;;1.12
67758;BMP180;54562;47.620;18.786;2023-03-04T00:22:50;98564.60;;;1.10
67758;BMP180;54562;47.620;18.786;2023-03-04T00:25:58;98559.60;;;1.10
67758;BMP180;54562;47.620;18.786;2023-03-04T00:29:06;98554.80;;;1.06
67758;BMP180;54562;47.620;18.786;2023-03-04T00:32:14;98555.00;;;1.00
67758;BMP180;54562;47.620;18.786;2023-03-04T00:35:24;98557.20;;;1.00
67758;BMP180;54562;47.620;18.786;2023-03-04T00:38:32;98553.00;;;1.00
67758;BMP180;54562;47.620;18.786;2023-03-04T00:41:40;98558.60;;;1.00
67758;BMP180;54562;47.620;18.786;2023-03-04T00:44:48;98557.60;;;1.00
67758;BMP180;54562;47.620;18.786;2023-03-04T00:47:56;98556.00;;;0.92
67758;BMP180;54562;47.620;18.786;2023-03-04T00:51:05;98551.80;;;0.90
67758;BMP180;54562;47.620;18.786;2023-03-04T00:54:13;98543.80;;;0.90
67758;BMP180;54562;47.620;18.786;2023-03-04T00:57:21;98546.60;;;0.90
67758;BMP180;54562;47.620;18.786;2023-03-04T01:00:29;98542.80;;;0.90
67758;BMP180;54562;47.620;18.786;2023-03-04T01:03:37;98534.00;;;0.80
67758;BMP180;54562;47.620;18.786;2023-03-04T01:06:46;98531.40;;;0.80
67758;BMP180;54562;47.620;18.786;2023-03-04T01:09:54;98535.40;;;0.80
67758;BMP180;54562;47.620;18.786;2023-03-04T01:13:02;98535.00;;;0.70
67758;BMP180;54562;47.620;18.786;2023-03-04T01:16:11;98531.40;;;0.70
67758;BMP180;54562;47.620;18.786;2023-03-04T01:19:19;98526.20;;;0.70
67758;BMP180;54562;47.620;18.786;2023-03-04T01:22:27;98528.20;;;0.60
67758;BMP180;54562;47.620;18.786;2023-03-04T01:25:35;98526.00;;;0.60
67758;BMP180;54562;47.620;18.786;2023-03-04T01:28:43;98527.60;;;0.60
67758;BMP180;54562;47.620;18.786;2023-03-04T01:31:51;98525.80;;;0.56
67758;BMP180;54562;47.620;18.786;2023-03-04T01:35:00;98516.80;;;0.50
67758;BMP180;54562;47.620;18.786;2023-03-04T01:38:08;98514.80;;;0.50
67758;BMP180;54562;47.620;18.786;2023-03-04T01:41:18;98512.60;;;0.50
67758;BMP180;54562;47.620;18.786;2023-03-04T01:44:29;98506.40;;;0.48
67758;BMP180;54562;47.620;18.786;2023-03-04T01:47:37;98511.60;;;0.40
67758;BMP180;54562;47.620;18.786;2023-03-04T01:50:45;98502.20;;;0.40
67758;BMP180;54562;47.620;18.786;2023-03-04T01:53:53;98499.80;;;0.32
67758;BMP180;54562;47.620;18.786;2023-03-04T01:57:05;98497.20;;;0.28
67758;BMP180;54562;47.620;18.786;2023-03-04T02:00:27;98494.40;;;0.20
67758;BMP180;54562;47.620;18.786;2023-03-04T02:03:36;98496.00;;;0.20
67758;BMP180;54562;47.620;18.786;2023-03-04T02:06:46;98492.80;;;0.10
67758;BMP180;54562;47.620;18.786;2023-03-04T02:09:54;98490.60;;;0.10
67758;BMP180;54562;47.620;18.786;2023-03-04T02:13:03;98483.80;;;0.10
67758;BMP180;54562;47.620;18.786;2023-03-04T02:16:11;98481.80;;;0.10
67758;BMP180;54562;47.620;18.786;2023-03-04T02:19:38;98477.60;;;0.08
67758;BMP180;54562;47.620;18.786;2023-03-04T02:22:59;98483.40;;;0.00
67758;BMP180;54562;47.620;18.786;2023-03-04T02:26:15;98476.80;;;0.00
67758;BMP180;54562;47.620;18.786;2023-03-04T02:29:23;98480.20;;;-0.06
67758;BMP180;54562;47.620;18.786;2023-03-04T02:32:33;98474.80;;;-0.10
67758;BMP180;54562;47.620;18.786;2023-03-04T02:35:41;98469.40;;;-0.20
67758;BMP180;54562;47.620;18.786;2023-03-04T02:38:49;98463.40;;;-0.20
67758;BMP180;54562;47.620;18.786;2023-03-04T02:41:59;98461.80;;;-0.28
67758;BMP180;54562;47.620;18.786;2023-03-04T02:45:36;98457.00;;;-0.30
67758;BMP180;54562;47.620;18.786;2023-03-04T02:48:44;98457.00;;;-0.40
67758;BMP180;54562;47.620;18.786;2023-03-04T02:51:59;98455.00;;;-0.46
67758;BMP180;54562;47.620;18.786;2023-03-04T02:55:10;98457.80;;;-0.50
67758;BMP180;54562;47.620;18.786;2023-03-04T02:58:19;98457.80;;;-0.60
67758;BMP180;54562;47.620;18.786;2023-03-04T03:01:31;98457.40;;;-0.64
67758;BMP180;54562;47.620;18.786;2023-03-04T03:04:41;98458.00;;;-0.70
67758;BMP180;54562;47.620;18.786;2023-03-04T03:07:49;98453.60;;;-0.76
67758;BMP180;54562;47.620;18.786;2023-03-04T03:10:57;98450.20;;;-0.80
67758;BMP180;54562;47.620;18.786;2023-03-04T03:14:05;98448.20;;;-0.82
67758;BMP180;54562;47.620;18.786;2023-03-04T03:17:13;98445.40;;;-0.90
67758;BMP180;54562;47.620;18.786;2023-03-04T03:20:21;98440.80;;;-0.90
67758;BMP180;54562;47.620;18.786;2023-03-04T03:23:31;98433.40;;;-0.90
67758;BMP180;54562;47.620;18.786;2023-03-04T03:26:38;98434.00;;;-0.90
67758;BMP180;54562;47.620;18.786;2023-03-04T03:29:47;98431.00;;;-0.90
67758;BMP180;54562;47.620;18.786;2023-03-04T03:32:55;98429.00;;;-0.96
67758;BMP180;54562;47.620;18.786;2023-03-04T03:36:03;98430.40;;;-1.00
67758;BMP180;54562;47.620;18.786;2023-03-04T03:39:11;98428.20;;;-1.00
67758;BMP180;54562;47.620;18.786;2023-03-04T03:42:21;98426.80;;;-1.00
67758;BMP180;54562;47.620;18.786;2023-03-04T03:45:29;98427.00;;;-1.02
67758;BMP180;54562;47.620;18.786;2023-03-04T03:48:37;98436.00;;;-1.06
67758;BMP180;54562;47.620;18.786;2023-03-04T03:51:45;98431.20;;;-1.06
67758;BMP180;54562;47.620;18.786;2023-03-04T03:54:53;98433.80;;;-1.06
67758;BMP180;54562;47.620;18.786;2023-03-04T03:58:00;98434.40;;;-1.00
67758;BMP180;54562;47.620;18.786;2023-03-04T04:01:09;98432.20;;;-1.08
67758;BMP180;54562;47.620;18.786;2023-03-04T04:04:17;98431.80;;;-1.10
67758;BMP180;54562;47.620;18.786;2023-03-04T04:07:25;98427.40;;;-1.10
67758;BMP180;54562;47.620;18.786;2023-03-04T04:10:33;98430.00;;;-1.10
67758;BMP180;54562;47.620;18.786;2023-03-04T04:13:41;98424.40;;;-1.10
67758;BMP180;54562;47.620;18.786;2023-03-04T04:16:49;98426.00;;;-1.20
67758;BMP180;54562;47.620;18.786;2023-03-04T04:19:57;98425.60;;;-1.22
67758;BMP180;54562;47.620;18.786;2023-03-04T04:23:06;98423.20;;;-1.30
67758;BMP180;54562;47.620;18.786;2023-03-04T04:26:14;98422.40;;;-1.30
67758;BMP180;54562;47.620;18.786;2023-03-04T04:29:22;98431.60;;;-1.40
67758;BMP180;54562;47.620;18.786;2023-03-04T04:32:30;98429.20;;;-1.40
67758;BMP180;54562;47.620;18.786;2023-03-04T04:35:38;98426.80;;;-1.44
67758;BMP180;54562;47.620;18.786;2023-03-04T04:38:47;98426.80;;;-1.48
67758;BMP180;54562;47.620;18.786;2023-03-04T04:41:55;98426.40;;;-1.50
67758;BMP180;54562;47.620;18.786;2023-03-04T04:45:05;98422.60;;;-1.50
67758;BMP180;54562;47.620;18.786;2023-03-04T04:48:13;98421.60;;;-1.50
67758;BMP180;54562;47.620;18.786;2023-03-04T04:51:21;98420.40;;;-1.50
67758;BMP180;54562;47.620;18.786;2023-03-04T04:54:29;98425.40;;;-1.50
67758;BMP180;54562;47.620;18.786;2023-03-04T04:57:37;98421.20;;;-1.50
67758;BMP180;54562;47.620;18.786;2023-03-04T05:00:45;98419.00;;;-1.50
67758;BMP180;54562;47.620;18.786;2023-03-04T05:03:54;98415.80;;;-1.50
67758;BMP180;54562;47.620;18.786;2023-03-04T05:07:02;98418.40;;;-1.50
67758;BMP180;54562;47.620;18.786;2023-03-04T05:10:12;98421.60;;;-1.54
67758;BMP180;54562;47.620;18.786;2023-03-04T05:13:20;98418.60;;;-1.60
67758;BMP180;54562;47.620;18.786;2023-03-04T05:16:28;98416.20;;;-1.60
67758;BMP180;54562;47.620;18.786;2023-03-04T05:19:36;98415.80;;;-1.60
67758;BMP180;54562;47.620;18.786;2023-03-04T05:22:44;98419.20;;;-1.64
67758;BMP180;54562;47.620;18.786;2023-03-04T05:25:52;98415.60;;;-1.70
67758;BMP180;54562;47.620;18.786;2023-03-04T05:29:00;98417.60;;;-1.70
67758;BMP180;54562;47.620;18.786;2023-03-04T05:32:09;98418.20;;;-1.70
67758;BMP180;54562;47.620;18.786;2023-03-04T05:35:17;98415.20;;;-1.70
67758;BMP180;54562;47.620;18.786;2023-03-04T05:38:25;98416.20;;;-1.70
67758;BMP180;54562;47.620;18.786;2023-03-04T05:41:33;98417.20;;;-1.66
67758;BMP180;54562;47.620;18.786;2023-03-04T05:44:41;98412.40;;;-1.64
67758;BMP180;54562;47.620;18.786;2023-03-04T05:47:49;98406.00;;;-1.70
67758;BMP180;54562;47.620;18.786;2023-03-04T05:50:59;98409.00;;;-1.70
67758;BMP180;54562;47.620;18.786;2023-03-04T05:54:07;98411.60;;;-1.70
67758;BMP180;54562;47.620;18.786;2023-03-04T05:57:15;98411.40;;;-1.66
67758;BMP180;54562;47.620;18.786;2023-03-04T06:00:24;98413.20;;;-1.60
67758;BMP180;54562;47.620;18.786;2023-03-04T06:03:33;98421.20;;;-1.52
67758;BMP180;54562;47.620;18.786;2023-03-04T06:06:43;98422.60;;;-1.50
67758;BMP180;54562;47.620;18.786;2023-03-04T06:09:52;98425.40;;;-1.40
67758;BMP180;54562;47.620;18.786;2023-03-04T06:13:00;98422.80;;;-1.30
67758;BMP180;54562;47.620;18.786;2023-03-04T06:16:10;98426.60;;;-1.30
67758;BMP180;54562;47.620;18.786;2023-03-04T06:19:17;98435.80;;;-1.20
67758;BMP180;54562;47.620;18.786;2023-03-04T06:22:26;98442.40;;;-1.06
67758;BMP180;54562;47.620;18.786;2023-03-04T06:25:34;98443.20;;;-0.90
67758;BMP180;54562;47.620;18.786;2023-03-04T06:28:42;98443.40;;;-0.70
67758;BMP180;54562;47.620;18.786;2023-03-04T06:31:50;98439.60;;;-0.56
67758;BMP180;54562;47.620;18.786;2023-03-04T06:35:00;98444.40;;;-0.40
67758;BMP180;54562;47.620;18.786;2023-03-04T06:38:08;98445.40;;;-0.30
67758;BMP180;54562;47.620;18.786;2023-03-04T06:41:17;98447.60;;;-0.20
67758;BMP180;54562;47.620;18.786;2023-03-04T06:44:25;98452.80;;;-0.10
67758;BMP180;54562;47.620;18.786;2023-03-04T06:47:33;98450.60;;;0.00
67758;BMP180;54562;47.620;18.786;2023-03-04T06:50:43;98452.40;;;0.04
67758;BMP180;54562;47.620;18.786;2023-03-04T06:53:51;98459.00;;;0.14
67758;BMP180;54562;47.620;18.786;2023-03-04T06:56:58;98459.80;;;0.22
67758;BMP180;54562;47.620;18.786;2023-03-04T07:00:09;98461.00;;;0.34
67758;BMP180;54562;47.620;18.786;2023-03-04T07:03:17;98452.20;;;0.42
67758;BMP180;54562;47.620;18.786;2023-03-04T07:06:27;98456.20;;;0.60
67758;BMP180;54562;47.620;18.786;2023-03-04T07:09:35;98451.60;;;0.70
67758;BMP180;54562;47.620;18.786;2023-03-04T07:12:43;98448.00;;;0.90
67758;BMP180;54562;47.620;18.786;2023-03-04T07:15:51;98451.20;;;1.00
67758;BMP180;54562;47.620;18.786;2023-03-04T07:18:59;98447.20;;;1.18
67758;BMP180;54562;47.620;18.786;2023-03-04T07:22:08;98444.20;;;1.30
67758;BMP180;54562;47.620;18.786;2023-03-04T07:25:16;98451.40;;;1.50
67758;BMP180;54562;47.620;18.786;2023-03-04T07:28:24;98445.20;;;1.60
67758;BMP180;54562;47.620;18.786;2023-03-04T07:31:33;98445.00;;;1.80
67758;BMP180;54562;47.620;18.786;2023-03-04T07:34:40;98449.20;;;1.94
67758;BMP180;54562;47.620;18.786;2023-03-04T07:37:48;98444.60;;;2.10
67758;BMP180;54562;47.620;18.786;2023-03-04T07:40:59;98441.60;;;2.30
67758;BMP180;54562;47.620;18.786;2023-03-04T07:44:09;98441.40;;;2.50
67758;BMP180;54562;47.620;18.786;2023-03-04T07:47:18;98441.40;;;2.60
67758;BMP180;54562;47.620;18.786;2023-03-04T07:50:26;98439.80;;;2.80
67758;BMP180;54562;47.620;18.786;2023-03-04T07:53:35;98440.00;;;3.00
67758;BMP180;54562;47.620;18.786;2023-03-04T07:56:43;98436.20;;;3.12
67758;BMP180;54562;47.620;18.786;2023-03-04T07:59:51;98437.20;;;3.30
67758;BMP180;54562;47.620;18.786;2023-03-04T08:02:59;98446.20;;;3.46
67758;BMP180;54562;47.620;18.786;2023-03-04T08:06:11;98441.40;;;3.60
67758;BMP180;54562;47.620;18.786;2023-03-04T08:09:20;98435.80;;;3.80
67758;BMP180;54562;47.620;18.786;2023-03-04T08:12:29;98443.20;;;4.00
67758;BMP180;54562;47.620;18.786;2023-03-04T08:15:42;98444.80;;;4.10
67758;BMP180;54562;47.620;18.786;2023-03-04T08:18:52;98441.40;;;4.26
67758;BMP180;54562;47.620;18.786;2023-03-04T08:22:00;98433.80;;;4.40
67758;BMP180;54562;47.620;18.786;2023-03-04T08:25:09;98434.60;;;4.50
67758;BMP180;54562;47.620;18.786;2023-03-04T08:28:19;98433.20;;;4.74
67758;BMP180;54562;47.620;18.786;2023-03-04T08:31:27;98427.60;;;4.98
67758;BMP180;54562;47.620;18.786;2023-03-04T08:34:37;98420.40;;;5.20
67758;BMP180;54562;47.620;18.786;2023-03-04T08:37:45;98417.60;;;5.40
67758;BMP180;54562;47.620;18.786;2023-03-04T08:40:58;98417.20;;;5.60
67758;BMP180;54562;47.620;18.786;2023-03-04T08:44:07;98413.40;;;5.80
67758;BMP180;54562;47.620;18.786;2023-03-04T08:47:16;98408.80;;;5.90
67758;BMP180;54562;47.620;18.786;2023-03-04T08:50:24;98412.80;;;6.10
67758;BMP180;54562;47.620;18.786;2023-03-04T08:53:33;98407.20;;;6.30
67758;BMP180;54562;47.620;18.786;2023-03-04T08:56:42;98405.20;;;6.42
67758;BMP180;54562;47.620;18.786;2023-03-04T08:59:51;98405.40;;;6.50
67758;BMP180;54562;47.620;18.786;2023-03-04T09:02:59;98398.80;;;6.60
67758;BMP180;54562;47.620;18.786;2023-03-04T09:06:10;98394.80;;;6.76
67758;BMP180;54562;47.620;18.786;2023-03-04T09:09:19;98393.60;;;6.90
67758;BMP180;54562;47.620;18.786;2023-03-04T09:12:30;98390.40;;;7.10
67758;BMP180;54562;47.620;18.786;2023-03-04T09:15:41;98394.60;;;7.20
67758;BMP180;54562;47.620;18.786;2023-03-04T09:18:51;98386.40;;;7.36
67758;BMP180;54562;47.620;18.786;2023-03-04T09:21:59;98385.20;;;7.50
67758;BMP180;54562;47.620;18.786;2023-03-04T09:25:12;98383.20;;;7.50
67758;BMP180;54562;47.620;18.786;2023-03-04T09:28:21;98387.00;;;7.60
67758;BMP180;54562;47.620;18.786;2023-03-04T09:31:31;98389.00;;;7.70
67758;BMP180;54562;47.620;18.786;2023-03-04T09:34:39;98389.80;;;7.70
67758;BMP180;54562;47.620;18.786;2023-03-04T09:37:47;98382.60;;;7.70
67758;BMP180;54562;47.620;18.786;2023-03-04T09:40:56;98384.00;;;7.70
67758;BMP180;54562;47.620;18.786;2023-03-04T09:44:15;98380.80;;;7.70
67758;BMP180;54562;47.620;18.786;2023-03-04T09:47:29;98378.60;;;7.70
67758;BMP180;54562;47.620;18.786;2023-03-04T09:50:49;98373.40;;;7.80
67758;BMP180;54562;47.620;18.786;2023-03-04T09:54:10;98371.00;;;7.90
67758;BMP180;54562;47.620;18.786;2023-03-04T09:57:35;98372.40;;;8.00
67758;BMP180;54562;47.620;18.786;2023-03-04T10:00:53;98372.60;;;8.06
67758;BMP180;54562;47.620;18.786;2023-03-04T10:04:09;98370.40;;;8.20
67758;BMP180;54562;47.620;18.786;2023-03-04T10:07:25;98367.60;;;8.30
67758;BMP180;54562;47.620;18.786;2023-03-04T10:10:39;98366.40;;;8.48
67758;BMP180;54562;47.620;18.786;2023-03-04T10:14:00;98362.80;;;8.60
67758;BMP180;54562;47.620;18.786;2023-03-04T10:17:18;98361.40;;;8.70
67758;BMP180;54562;47.620;18.786;2023-03-04T10:20:36;98362.40;;;8.80
67758;BMP180;54562;47.620;18.786;2023-03-04T10:23:50;98361.00;;;8.90
67758;BMP180;54562;47.620;18.786;2023-03-04T10:27:06;98359.00;;;9.10
67758;BMP180;54562;47.620;18.786;2023-03-04T10:30:31;98356.40;;;9.30
67758;BMP180;54562;47.620;18.786;2023-03-04T10:33:44;98348.00;;;9.40
67758;BMP180;54562;47.620;18.786;2023-03-04T10:36:59;98345.00;;;9.40
67758;BMP180;54562;47.620;18.786;2023-03-04T10:40:23;98342.20;;;9.50
67758;BMP180;54562;47.620;18.786;2023-03-04T10:43:32;98332.20;;;9.50
67758;BMP180;54562;47.620;18.786;2023-03-04T10:46:42;98334.40;;;9.64
67758;BMP180;54562;47.620;18.786;2023-03-04T10:49:55;98326.40;;;9.70
67758;BMP180;54562;47.620;18.786;2023-03-04T10:53:05;98326.40;;;9.80
67758;BMP180;54562;47.620;18.786;2023-03-04T10:56:39;98323.20;;;9.90
67758;BMP180;54562;47.620;18.786;2023-03-04T10:59:50;98319.60;;;10.00
67758;BMP180;54562;47.620;18.786;2023-03-04T11:03:30;98315.20;;;10.18
67758;BMP180;54562;47.620;18.786;2023-03-04T11:06:42;98310.40;;;10.20
67758;BMP180;54562;47.620;18.786;2023-03-04T11:09:50;98307.60;;;10.36
67758;BMP180;54562;47.620;18.786;2023-03-04T11:13:11;98306.80;;;10.50
67758;BMP180;54562;47.620;18.786;2023-03-04T11:16:29;98302.40;;;10.60
67758;BMP180;54562;47.620;18.786;2023-03-04T11:19:43;98297.00;;;10.70
67758;BMP180;54562;47.620;18.786;2023-03-04T11:22:54;98293.00;;;10.70
67758;BMP180;54562;47.620;18.786;2023-03-04T11:26:07;98288.00;;;10.70
67758;BMP180;54562;47.620;18.786;2023-03-04T11:29:23;98277.00;;;10.72
67758;BMP180;54562;47.620;18.786;2023-03-04T11:32:38;98275.80;;;10.80
67758;BMP180;54562;47.620;18.786;2023-03-04T11:36:05;98271.60;;;10.80
67758;BMP180;54562;47.620;18.786;2023-03-04T11:39:23;98264.00;;;10.80
67758;BMP180;54562;47.620;18.786;2023-03-04T11:42:39;98260.80;;;10.80
67758;BMP180;54562;47.620;18.786;2023-03-04T11:46:06;98257.00;;;10.82
67758;BMP180;54562;47.620;18.786;2023-03-04T11:49:52;98249.60;;;10.90
67758;BMP180;54562;47.620;18.786;2023-03-04T11:53:29;98245.60;;;11.10
67758;BMP180;54562;47.620;18.786;2023-03-04T11:56:43;98247.40;;;11.30
67758;BMP180;54562;47.620;18.786;2023-03-04T12:00:09;98237.00;;;11.30
67758;BMP180;54562;47.620;18.786;2023-03-04T12:04:05;98236.60;;;11.40
67758;BMP180;54562;47.620;18.786;2023-03-04T12:07:44;98232.20;;;11.50
67758;BMP180;54562;47.620;18.786;2023-03-04T12:11:03;98222.60;;;11.60
67758;BMP180;54562;47.620;18.786;2023-03-04T12:14:27;98220.40;;;11.70
67758;BMP180;54562;47.620;18.786;2023-03-04T12:17:55;98217.20;;;11.90
67758;BMP180;54562;47.620;18.786;2023-03-04T12:21:35;98219.40;;;12.00
67758;BMP180;54562;47.620;18.786;2023-03-04T12:28:45;98197.80;;;12.26
67758;BMP180;54562;47.620;18.786;2023-03-04T12:32:06;98192.40;;;12.30
67758;BMP180;54562;47.620;18.786;2023-03-04T12:35:34;98188.20;;;12.40
67758;BMP180;54562;47.620;18.786;2023-03-04T12:38:59;98185.80;;;12.40
67758;BMP180;54562;47.620;18.786;2023-03-04T12:42:27;98181.00;;;12.36
67758;BMP180;54562;47.620;18.786;2023-03-04T12:45:52;98176.40;;;12.50
67758;BMP180;54562;47.620;18.786;2023-03-04T12:49:45;98173.80;;;12.70
67758;BMP180;54562;47.620;18.786;2023-03-04T12:53:10;98173.40;;;12.90
67758;BMP180;54562;47.620;18.786;2023-03-04T12:56:27;98163.40;;;13.12
67758;BMP180;54562;47.620;18.786;2023-03-04T12:59:43;98163.40;;;13.20
67758;BMP180;54562;47.620;18.786;2023-03-04T13:03:07;98157.60;;;13.20
67758;BMP180;54562;47.620;18.786;2023-03-04T13:06:31;98159.20;;;13.20
67758;BMP180;54562;47.620;18.786;2023-03-04T13:09:49;98152.80;;;13.20
67758;BMP180;54562;47.620;18.786;2023-03-04T13:13:01;98150.80;;;13.30
67758;BMP180;54562;47.620;18.786;2023-03-04T13:16:39;98144.60;;;13.40
67758;BMP180;54562;47.620;18.786;2023-03-04T13:20:04;98143.80;;;13.50
67758;BMP180;54562;47.620;18.786;2023-03-04T13:23:30;98134.40;;;13.50
67758;BMP180;54562;47.620;18.786;2023-03-04T13:26:38;98136.00;;;13.60
67758;BMP180;54562;47.620;18.786;2023-03-04T13:29:46;98133.40;;;13.70
67758;BMP180;54562;47.620;18.786;2023-03-04T13:32:55;98136.40;;;13.70
67758;BMP180;54562;47.620;18.786;2023-03-04T13:36:06;98139.00;;;13.72
67758;BMP180;54562;47.620;18.786;2023-03-04T13:39:37;98130.20;;;13.74
67758;BMP180;54562;47.620;18.786;2023-03-04T13:42:46;98120.60;;;13.80
67758;BMP180;54562;47.620;18.786;2023-03-04T13:45:54;98121.40;;;13.90
67758;BMP180;54562;47.620;18.786;2023-03-04T13:49:06;98118.60;;;13.90
67758;BMP180;54562;47.620;18.786;2023-03-04T13:52:39;98122.00;;;13.80
67758;BMP180;54562;47.620;18.786;2023-03-04T13:59:45;98118.40;;;13.60
67758;BMP180;54562;47.620;18.786;2023-03-04T14:02:55;98116.40;;;13.50
67758;BMP180;54562;47.620;18.786;2023-03-04T14:06:19;98117.60;;;13.50
67758;BMP180;54562;47.620;18.786;2023-03-04T14:09:30;98114.80;;;13.56
67758;BMP180;54562;47.620;18.786;2023-03-04T14:12:43;98107.00;;;13.40
67758;BMP180;54562;47.620;18.786;2023-03-04T14:15:58;98102.60;;;13.30
67758;BMP180;54562;47.620;18.786;2023-03-04T14:19:16;98099.60;;;13.20
67758;BMP180;54562;47.620;18.786;2023-03-04T14:22:27;98096.00;;;13.10
67758;BMP180;54562;47.620;18.786;2023-03-04T14:25:37;98093.40;;;13.00
67758;BMP180;54562;47.620;18.786;2023-03-04T14:28:48;98095.40;;;13.00
67758;BMP180;54562;47.620;18.786;2023-03-04T14:31:58;98094.00;;;13.00
67758;BMP180;54562;47.620;18.786;2023-03-04T14:35:21;98094.60;;;13.00
67758;BMP180;54562;47.620;18.786;2023-03-04T14:38:33;98098.00;;;12.90
67758;BMP180;54562;47.620;18.786;2023-03-04T14:41:43;98096.60;;;12.70
67758;BMP180;54562;47.620;18.786;2023-03-04T14:44:56;98096.20;;;12.50
67758;BMP180;54562;47.620;18.786;2023-03-04T14:48:08;98097.40;;;12.30
67758;BMP180;54562;47.620;18.786;2023-03-04T14:55:07;98120.60;;;11.58
67758;BMP180;54562;47.620;18.786;2023-03-04T14:58:24;98119.00;;;11.50
67758;BMP180;54562;47.620;18.786;2023-03-04T15:01:36;98115.20;;;11.38
67758;BMP180;54562;47.620;18.786;2023-03-04T15:04:45;98117.00;;;11.20
67758;BMP180;54562;47.620;18.786;2023-03-04T15:08:00;98115.00;;;11.10
67758;BMP180;54562;47.620;18.786;2023-03-04T15:11:19;98117.80;;;10.98
67758;BMP180;54562;47.620;18.786;2023-03-04T15:14:46;98122.80;;;10.80
67758;BMP180;54562;47.620;18.786;2023-03-04T15:18:02;98114.40;;;10.60
67758;BMP180;54562;47.620;18.786;2023-03-04T15:21:36;98111.80;;;10.30
67758;BMP180;54562;47.620;18.786;2023-03-04T15:24:46;98115.80;;;10.06
67758;BMP180;54562;47.620;18.786;2023-03-04T15:27:55;98114.00;;;9.82
67758;BMP180;54562;47.620;18.786;2023-03-04T15:31:06;98113.40;;;9.60
67758;BMP180;54562;47.620;18.786;2023-03-04T15:34:22;98114.20;;;9.30
67758;BMP180;54562;47.620;18.786;2023-03-04T15:37:31;98116.20;;;9.10
67758;BMP180;54562;47.620;18.786;2023-03-04T15:40:41;98119.80;;;8.96
67758;BMP180;54562;47.620;18.786;2023-03-04T15:43:49;98123.20;;;8.82
67758;BMP180;54562;47.620;18.786;2023-03-04T15:46:58;98122.80;;;8.78
67758;BMP180;54562;47.620;18.786;2023-03-04T15:50:08;98125.00;;;8.60
67758;BMP180;54562;47.620;18.786;2023-03-04T15:53:21;98125.40;;;8.50
67758;BMP180;54562;47.620;18.786;2023-03-04T15:56:34;98126.60;;;8.38
67758;BMP180;54562;47.620;18.786;2023-03-04T15:59:42;98119.60;;;8.20
67758;BMP180;54562;47.620;18.786;2023-03-04T16:02:50;98120.20;;;8.00
67758;BMP180;54562;47.620;18.786;2023-03-04T16:05:59;98110.00;;;7.84
67758;BMP180;54562;47.620;18.786;2023-03-04T16:09:10;98111.40;;;7.70
67758;BMP180;54562;47.620;18.786;2023-03-04T16:12:20;98111.80;;;7.50
67758;BMP180;54562;47.620;18.786;2023-03-04T16:15:30;98110.60;;;7.40
67758;BMP180;54562;47.620;18.786;2023-03-04T16:18:39;98114.40;;;7.30
67758;BMP180;54562;47.620;18.786;2023-03-04T16:21:48;98107.40;;;7.18
67758;BMP180;54562;47.620;18.786;2023-03-04T16:24:56;98113.00;;;7.08
67758;BMP180;54562;47.620;18.786;2023-03-04T16:28:05;98114.80;;;6.96
67758;BMP180;54562;47.620;18.786;2023-03-04T16:31:15;98117.40;;;6.90
67758;BMP180;54562;47.620;18.786;2023-03-04T16:34:21;98123.00;;;6.80
67758;BMP180;54562;47.620;18.786;2023-03-04T16:37:32;98125.00;;;6.70
67758;BMP180;54562;47.620;18.786;2023-03-04T16:40:41;98128.20;;;6.50
67758;BMP180;54562;47.620;18.786;2023-03-04T16:43:49;98128.00;;;6.40
67758;BMP180;54562;47.620;18.786;2023-03-04T16:46:56;98137.20;;;6.30
67758;BMP180;54562;47.620;18.786;2023-03-04T16:50:05;98143.40;;;6.12
67758;BMP180;54562;47.620;18.786;2023-03-04T16:53:28;98139.60;;;6.02
67758;BMP180;54562;47.620;18.786;2023-03-04T16:56:37;98136.80;;;5.98
67758;BMP180;54562;47.620;18.786;2023-03-04T16:59:45;98140.00;;;5.90
67758;BMP180;54562;47.620;18.786;2023-03-04T17:02:57;98140.60;;;5.82
67758;BMP180;54562;47.620;18.786;2023-03-04T17:06:07;98149.00;;;5.80
67758;BMP180;54562;47.620;18.786;2023-03-04T17:09:16;98152.00;;;5.70
67758;BMP180;54562;47.620;18.786;2023-03-04T17:12:24;98153.20;;;5.60
67758;BMP180;54562;47.620;18.786;2023-03-04T17:15:32;98154.80;;;5.54
67758;BMP180;54562;47.620;18.786;2023-03-04T17:18:41;98159.80;;;5.50
67758;BMP180;54562;47.620;18.786;2023-03-04T17:21:49;98153.60;;;5.38
67758;BMP180;54562;47.620;18.786;2023-03-04T17:24:58;98152.80;;;5.20
67758;BMP180;54562;47.620;18.786;2023-03-04T17:28:08;98156.40;;;5.16
67758;BMP180;54562;47.620;18.786;2023-03-04T17:31:18;98159.60;;;5.04
67758;BMP180;54562;47.620;18.786;2023-03-04T17:34:26;98155.20;;;4.94
67758;BMP180;54562;47.620;18.786;2023-03-04T17:37:34;98154.20;;;4.90
67758;BMP180;54562;47.620;18.786;2023-03-04T17:40:43;98159.80;;;4.80
67758;BMP180;54562;47.620;18.786;2023-03-04T17:43:52;98165.60;;;4.70
67758;BMP180;54562;47.620;18.786;2023-03-04T17:47:02;98167.20;;;4.70
67758;BMP180;54562;47.620;18.786;2023-03-04T17:50:13;98165.20;;;4.60
67758;BMP180;54562;47.620;18.786;2023-03-04T17:53:22;98166.60;;;4.50
67758;BMP180;54562;47.620;18.786;2023-03-04T17:56:30;98168.60;;;4.48
67758;BMP180;54562;47.620;18.786;2023-03-04T17:59:38;98164.20;;;4.40
67758;BMP180;54562;47.620;18.786;2023-03-04T18:02:47;98169.20;;;4.30
67758;BMP180;54562;47.620;18.786;2023-03-04T18:05:55;98171.00;;;4.22
67758;BMP180;54562;47.620;18.786;2023-03-04T18:09:04;98175.40;;;4.16
67758;BMP180;54562;47.620;18.786;2023-03-04T18:12:12;98169.40;;;4.04
67758;BMP180;54562;47.620;18.786;2023-03-04T18:15:21;98169.80;;;3.90
67758;BMP180;54562;47.620;18.786;2023-03-04T18:18:30;98167.80;;;3.80
67758;BMP180;54562;47.620;18.786;2023-03-04T18:21:38;98172.20;;;3.68
67758;BMP180;54562;47.620;18.786;2023-03-04T18:24:46;98174.40;;;3.50
67758;BMP180;54562;47.620;18.786;2023-03-04T18:27:54;98168.40;;;3.40
67758;BMP180;54562;47.620;18.786;2023-03-04T18:31:02;98167.20;;;3.22